createdAt,value
2024-05-09T00:00:45.203Z,45.08
2024-05-09T00:03:33.274Z,45.23
2024-05-09T00:06:01.168Z,45.47
2024-05-09T00:08:29.200Z,45.48
2024-05-09T00:10:57.294Z,45.75
2024-05-09T00:13:27.806Z,45.86
2024-05-09T00:15:55.494Z,45.97
2024-05-09T00:18:23.532Z,46.21
2024-05-09T00:20:51.565Z,46.12
2024-05-09T00:23:19.812Z,46.07
2024-05-09T00:25:49.940Z,46.06
2024-05-09T00:28:17.691Z,46.32
2024-05-09T00:30:45.412Z,46.48
2024-05-09T00:33:13.407Z,46.60
2024-05-09T00:35:41.684Z,46.78
2024-05-09T00:38:10.390Z,46.98
2024-05-09T00:40:43.424Z,47.28
2024-05-09T00:43:13.409Z,47.25
2024-05-09T00:45:43.151Z,47.34
2024-05-09T00:48:14.956Z,47.29
2024-05-09T00:50:45.494Z,47.44
2024-05-09T00:53:14.942Z,47.77
2024-05-09T00:55:43.406Z,48.06
2024-05-09T00:58:14.575Z,48.18
2024-05-09T01:00:42.951Z,48.29
2024-05-09T01:03:13.026Z,48.45
2024-05-09T01:05:43.424Z,48.53
2024-05-09T01:08:11.808Z,48.56
2024-05-09T01:10:42.873Z,48.72
2024-05-09T01:13:12.913Z,48.74
2024-05-09T01:15:40.825Z,48.82
2024-05-09T01:19:25.598Z,48.94
2024-05-09T01:21:53.862Z,49.05
2024-05-09T01:24:22.763Z,49.05
2024-05-09T01:26:51.706Z,49.22
2024-05-09T01:29:20.443Z,49.40
2024-05-09T01:31:49.001Z,49.64
2024-05-09T01:34:17.060Z,49.48
2024-05-09T01:37:20.247Z,49.58
2024-05-09T01:39:49.156Z,49.72
2024-05-09T01:42:17.395Z,49.68
2024-05-09T01:44:46.758Z,49.68
2024-05-09T01:47:14.526Z,49.86
2024-05-09T01:49:42.965Z,49.77
2024-05-09T01:52:11.214Z,49.89
2024-05-09T01:54:39.819Z,50.10
2024-05-09T01:57:07.494Z,50.23
2024-05-09T01:59:36.092Z,50.04
2024-05-09T02:02:04.764Z,50.26
2024-05-09T02:04:34.114Z,50.29
2024-05-09T02:07:02.830Z,50.46
2024-05-09T02:09:31.840Z,50.58
2024-05-09T02:11:59.650Z,50.44
2024-05-09T02:14:27.473Z,50.51
2024-05-09T02:16:55.809Z,50.75
2024-05-09T02:19:24.024Z,50.92
2024-05-09T02:21:52.015Z,50.87
2024-05-09T02:24:20.673Z,50.93
2024-05-09T02:26:49.602Z,51.13
2024-05-09T02:29:17.643Z,51.15
2024-05-09T02:31:46.228Z,51.31
2024-05-09T02:34:14.591Z,51.42
2024-05-09T02:36:42.723Z,51.42
2024-05-09T02:39:10.876Z,51.38
2024-05-09T02:41:38.949Z,51.43
2024-05-09T02:44:07.302Z,51.53
2024-05-09T02:46:36.145Z,51.44
2024-05-09T02:49:04.079Z,51.51
2024-05-09T02:51:32.377Z,51.46
2024-05-09T02:54:00.129Z,51.68
2024-05-09T02:56:27.890Z,51.69
2024-05-09T02:58:56.584Z,52.05
2024-05-09T03:01:24.325Z,52.07
2024-05-09T03:03:52.967Z,52.27
2024-05-09T03:06:22.572Z,52.32
2024-05-09T03:08:50.706Z,52.51
2024-05-09T03:11:23.144Z,52.23
2024-05-09T03:13:53.000Z,52.17
2024-05-09T03:16:21.816Z,52.16
2024-05-09T03:18:49.639Z,52.32
2024-05-09T03:21:17.785Z,52.56
2024-05-09T03:23:45.895Z,52.84
2024-05-09T03:26:19.348Z,53.05
2024-05-09T03:28:47.941Z,53.10
2024-05-09T03:31:18.213Z,53.00
2024-05-09T03:33:46.944Z,53.32
2024-05-09T03:36:15.241Z,53.39
2024-05-09T03:38:43.552Z,53.60
2024-05-09T03:41:12.740Z,53.64
2024-05-09T03:43:41.083Z,53.63
2024-05-09T03:46:08.724Z,53.81
2024-05-09T03:48:37.217Z,53.75
2024-05-09T03:51:07.366Z,53.81
2024-05-09T03:53:36.363Z,53.75
2024-05-09T03:56:07.931Z,53.84
2024-05-09T03:58:35.648Z,53.73
2024-05-09T04:01:05.347Z,53.74
2024-05-09T04:03:35.125Z,53.66
2024-05-09T04:06:04.027Z,53.85
2024-05-09T04:08:31.956Z,53.94
2024-05-09T04:11:00.796Z,54.02
2024-05-09T04:13:28.834Z,54.28
2024-05-09T04:15:56.835Z,54.68
2024-05-09T04:18:25.534Z,54.65
2024-05-09T04:20:54.324Z,55.09
2024-05-09T04:23:22.731Z,55.00
2024-05-09T04:25:51.011Z,55.20
2024-05-09T04:28:20.267Z,55.63
2024-05-09T04:30:48.659Z,56.18
2024-05-09T04:33:19.184Z,56.21
2024-05-09T04:35:49.301Z,56.67
2024-05-09T04:38:19.122Z,56.69
2024-05-09T04:40:48.076Z,57.19
2024-05-09T04:43:19.985Z,56.96
2024-05-09T04:45:49.931Z,56.87
2024-05-09T04:48:20.380Z,56.88
2024-05-09T04:50:48.942Z,56.87
2024-05-09T04:53:17.928Z,56.73
2024-05-09T04:55:46.264Z,56.74
2024-05-09T04:58:14.498Z,56.73
2024-05-09T05:00:43.961Z,56.57
2024-05-09T05:03:16.135Z,56.38
2024-05-09T05:05:46.888Z,55.98
2024-05-09T05:08:17.534Z,56.06
2024-05-09T05:10:48.639Z,55.75
2024-05-09T05:13:25.559Z,55.22
2024-05-09T05:15:58.044Z,55.01
2024-05-09T05:18:28.233Z,54.58
2024-05-09T05:20:57.056Z,54.36
2024-05-09T05:23:26.025Z,54.03
2024-05-09T05:25:55.893Z,53.68
2024-05-09T05:28:29.554Z,53.33
2024-05-09T05:31:00.402Z,53.13
2024-05-09T05:33:30.737Z,53.00
2024-05-09T05:35:59.007Z,52.83
2024-05-09T05:38:28.385Z,52.62
2024-05-09T05:40:56.815Z,52.39
2024-05-09T05:43:25.409Z,52.64
2024-05-09T05:45:53.979Z,52.77
2024-05-09T05:48:22.949Z,52.99
2024-05-09T05:50:51.679Z,53.29
2024-05-09T05:53:20.193Z,53.08
2024-05-09T05:55:48.315Z,52.79
2024-05-09T05:58:16.493Z,52.55
2024-05-09T06:00:46.269Z,52.36
2024-05-09T06:03:15.022Z,52.00
2024-05-09T06:05:45.562Z,52.06
2024-05-09T06:08:14.112Z,51.66
2024-05-09T06:10:42.843Z,51.37
2024-05-09T06:13:13.737Z,51.50
2024-05-09T06:15:43.634Z,50.95
2024-05-09T06:18:14.395Z,50.78
2024-05-09T06:20:43.938Z,50.57
2024-05-09T06:23:14.386Z,50.12
2024-05-09T06:25:43.749Z,49.88
2024-05-09T06:28:11.657Z,49.61
2024-05-09T06:30:42.003Z,49.34
2024-05-09T06:33:13.934Z,49.08
2024-05-09T06:35:45.864Z,49.19
2024-05-09T06:38:14.398Z,48.48
2024-05-09T06:40:44.002Z,48.01
2024-05-09T06:43:14.722Z,47.84
2024-05-09T06:45:43.950Z,47.81
2024-05-09T06:48:12.235Z,47.82
2024-05-09T06:50:41.089Z,47.57
2024-05-09T06:53:09.674Z,47.24
2024-05-09T06:55:38.417Z,46.71
2024-05-09T06:58:09.519Z,45.80
2024-05-09T07:00:40.547Z,45.79
2024-05-09T07:03:12.475Z,46.31
2024-05-09T07:05:42.201Z,45.70
2024-05-09T07:08:11.317Z,44.98
2024-05-09T07:10:39.166Z,44.42
2024-05-09T07:13:10.866Z,43.71
2024-05-09T07:15:40.232Z,43.67
2024-05-09T07:18:13.234Z,43.49
2024-05-09T07:20:42.449Z,42.85
2024-05-09T07:23:11.510Z,42.55
2024-05-09T07:25:40.127Z,43.04
2024-05-09T07:28:16.731Z,43.29
2024-05-09T07:30:45.547Z,43.30
2024-05-09T07:33:22.778Z,43.40
2024-05-09T07:35:52.561Z,42.75
2024-05-09T07:38:21.095Z,42.23
2024-05-09T07:40:49.625Z,40.99
2024-05-09T07:43:17.872Z,39.52
2024-05-09T07:45:52.679Z,38.88
2024-05-09T07:52:38.423Z,36.83
2024-05-09T07:53:47.699Z,36.47
2024-05-09T07:56:22.696Z,36.14
2024-05-09T07:58:53.781Z,36.09
2024-05-09T08:01:24.440Z,36.02
2024-05-09T08:03:53.265Z,35.78
2024-05-09T08:06:21.313Z,35.13
2024-05-09T08:08:50.579Z,34.91
2024-05-09T08:11:20.182Z,34.67
2024-05-09T08:13:48.674Z,33.68
2024-05-09T08:16:18.782Z,32.90
2024-05-09T08:18:47.923Z,33.38
2024-05-09T08:21:16.132Z,33.15
2024-05-09T08:23:44.144Z,32.92
2024-05-09T08:26:12.709Z,32.63
2024-05-09T08:28:43.651Z,32.16
2024-05-09T08:31:11.765Z,31.62
2024-05-09T08:33:47.366Z,32.10
2024-05-09T08:36:15.962Z,31.53
2024-05-09T08:38:44.146Z,31.69
2024-05-09T08:41:14.181Z,31.55
2024-05-09T08:43:43.360Z,31.03
2024-05-09T08:46:13.803Z,31.28
2024-05-09T08:48:43.838Z,30.88
2024-05-09T08:51:13.832Z,31.08
2024-05-09T08:53:41.492Z,31.21
2024-05-09T08:56:11.476Z,31.33
2024-05-09T08:58:40.515Z,30.82
2024-05-09T09:01:08.929Z,30.94
2024-05-09T09:03:38.240Z,31.72
2024-05-09T09:06:08.833Z,31.68
2024-05-09T09:08:41.177Z,30.58
2024-05-09T09:11:10.676Z,30.03
2024-05-09T09:13:40.169Z,29.85
2024-05-09T09:16:08.299Z,30.03
2024-05-09T09:18:37.056Z,29.94
2024-05-09T09:21:10.405Z,29.77
2024-05-09T09:23:41.592Z,29.87
2024-05-09T09:26:16.178Z,30.00
2024-05-09T09:28:46.821Z,29.92
2024-05-09T09:31:20.761Z,29.75
2024-05-09T09:33:49.136Z,30.20
2024-05-09T09:36:18.209Z,29.81
2024-05-09T09:38:47.130Z,29.73
2024-05-09T09:41:17.409Z,29.92
2024-05-09T09:43:45.543Z,30.07
2024-05-09T09:46:14.568Z,29.84
2024-05-09T09:48:44.256Z,29.44
2024-05-09T09:51:15.162Z,28.52
2024-05-09T09:53:43.951Z,28.41
2024-05-09T09:56:13.204Z,28.77
2024-05-09T09:58:42.283Z,29.16
2024-05-09T10:01:10.765Z,29.16
2024-05-09T10:03:39.135Z,28.68
2024-05-09T10:06:08.855Z,28.35
2024-05-09T10:08:37.519Z,27.60
2024-05-09T10:11:06.692Z,26.42
2024-05-09T10:13:35.280Z,26.34
2024-05-09T10:16:11.203Z,26.18
2024-05-09T10:18:41.064Z,25.89
2024-05-09T10:21:17.294Z,25.91
2024-05-09T10:24:08.433Z,26.26
2024-05-09T10:26:37.207Z,26.49
2024-05-09T10:29:18.681Z,26.75
2024-05-09T10:31:47.881Z,27.21
2024-05-09T10:34:20.868Z,26.86
2024-05-09T10:36:54.195Z,26.93
2024-05-09T10:39:25.421Z,27.47
2024-05-09T10:41:53.221Z,27.39
2024-05-09T10:44:21.667Z,26.74
2024-05-09T10:46:51.130Z,26.87
2024-05-09T10:49:19.221Z,26.47
2024-05-09T10:51:48.760Z,25.46
2024-05-09T10:54:17.152Z,25.88
2024-05-09T10:56:44.741Z,25.79
2024-05-09T10:59:12.890Z,25.10
2024-05-09T11:01:41.690Z,25.35
2024-05-09T11:04:10.159Z,24.50
2024-05-09T11:06:39.034Z,25.00
2024-05-09T11:09:07.729Z,24.46
2024-05-09T11:11:36.704Z,24.66
2024-05-09T11:14:12.819Z,25.05
2024-05-09T11:16:41.095Z,24.55
2024-05-09T11:19:14.312Z,24.48
2024-05-09T11:21:43.274Z,24.39
2024-05-09T11:24:11.897Z,24.85
2024-05-09T11:26:40.534Z,24.42
2024-05-09T11:29:08.525Z,23.87
2024-05-09T11:31:48.730Z,23.71
2024-05-09T11:34:16.929Z,23.29
2024-05-09T11:36:45.788Z,23.48
2024-05-09T11:39:15.147Z,23.33
2024-05-09T11:41:42.901Z,23.14
2024-05-09T11:44:11.297Z,23.75
2024-05-09T11:46:39.646Z,23.74
2024-05-09T11:49:09.324Z,24.04
2024-05-09T11:51:45.418Z,24.24
2024-05-09T11:54:15.549Z,23.86
2024-05-09T11:56:44.273Z,24.02
2024-05-09T11:59:11.984Z,24.50
2024-05-09T12:01:40.137Z,24.85
2024-05-09T12:04:08.873Z,25.15
2024-05-09T12:06:37.228Z,25.84
2024-05-09T12:09:05.230Z,25.91
2024-05-09T12:11:33.291Z,25.96
2024-05-09T12:14:01.527Z,25.98
2024-05-09T12:16:30.207Z,25.90
2024-05-09T12:18:58.884Z,26.11
2024-05-09T12:21:27.475Z,26.42
2024-05-09T12:23:56.723Z,26.26
2024-05-09T12:26:24.455Z,26.28
2024-05-09T12:28:52.718Z,26.30
2024-05-09T12:31:20.518Z,26.53
2024-05-09T12:33:49.236Z,26.55
2024-05-09T12:36:17.307Z,26.41
2024-05-09T12:38:46.084Z,26.58
2024-05-09T12:41:14.301Z,26.58
2024-05-09T12:43:45.600Z,26.74
2024-05-09T12:46:13.746Z,26.81
2024-05-09T12:48:42.037Z,26.98
2024-05-09T12:51:12.490Z,26.37
2024-05-09T12:53:41.356Z,26.77
2024-05-09T12:56:11.711Z,26.74
2024-05-09T12:58:39.710Z,26.77
2024-05-09T13:01:09.504Z,26.23
2024-05-09T13:03:38.790Z,25.67
2024-05-09T13:06:07.207Z,25.31
2024-05-09T13:08:36.103Z,25.04
2024-05-09T13:11:04.855Z,25.00
2024-05-09T13:13:33.048Z,25.28
2024-05-09T13:16:01.576Z,25.45
2024-05-09T13:18:29.943Z,25.82
2024-05-09T13:20:58.361Z,26.12
2024-05-09T13:23:27.014Z,26.39
2024-05-09T13:25:55.595Z,26.24
2024-05-09T13:28:24.141Z,25.88
2024-05-09T13:30:52.608Z,25.54
2024-05-09T13:33:20.553Z,25.53
2024-05-09T13:35:50.901Z,24.94
2024-05-09T13:38:20.511Z,24.06
2024-05-09T13:40:50.342Z,23.30
2024-05-09T13:43:21.518Z,23.51
2024-05-09T13:45:50.321Z,22.67
2024-05-09T13:48:19.579Z,22.59
2024-05-09T13:50:47.869Z,22.15
2024-05-09T13:53:16.513Z,21.83
2024-05-09T13:55:44.497Z,21.66
2024-05-09T13:58:15.867Z,21.41
2024-05-09T14:00:48.070Z,21.14
2024-05-09T14:03:20.830Z,21.09
2024-05-09T14:05:51.564Z,21.04
2024-05-09T14:08:21.630Z,20.48
2024-05-09T14:10:50.749Z,20.52
2024-05-09T14:13:19.782Z,20.41
2024-05-09T14:15:47.798Z,20.27
2024-05-09T14:18:16.282Z,20.04
2024-05-09T14:20:44.628Z,19.74
2024-05-09T14:23:12.679Z,19.52
2024-05-09T14:25:43.596Z,19.25
2024-05-09T14:28:15.387Z,19.10
2024-05-09T14:30:44.538Z,18.63
2024-05-09T14:33:12.720Z,17.86
2024-05-09T14:35:42.864Z,16.56
2024-05-09T14:38:10.848Z,16.41
2024-05-09T14:40:43.065Z,16.34
2024-05-09T14:43:14.583Z,16.61
2024-05-09T14:45:46.657Z,16.46
2024-05-09T14:48:16.410Z,16.02
2024-05-09T14:50:44.499Z,15.96
2024-05-09T14:53:13.797Z,16.02
2024-05-09T14:55:43.476Z,15.38
2024-05-09T14:58:12.913Z,15.46
2024-05-09T15:00:51.156Z,15.70
2024-05-09T15:03:26.538Z,15.87
2024-05-09T15:05:55.545Z,15.54
2024-05-09T15:08:26.844Z,15.60
2024-05-09T15:10:57.696Z,15.13
2024-05-09T15:13:25.636Z,14.71
2024-05-09T15:15:53.805Z,14.81
2024-05-09T15:18:22.600Z,14.56
2024-05-09T15:20:50.761Z,14.58
2024-05-09T15:23:19.898Z,14.43
2024-05-09T15:25:48.913Z,14.30
2024-05-09T15:28:17.765Z,14.01
2024-05-09T15:30:47.847Z,13.81
2024-05-09T15:33:15.852Z,13.64
2024-05-09T15:35:46.471Z,13.48
2024-05-09T15:38:15.516Z,13.54
2024-05-09T15:40:44.827Z,13.44
2024-05-09T15:43:13.708Z,12.82
2024-05-09T15:45:42.225Z,13.16
2024-05-09T15:48:11.384Z,13.47
2024-05-09T15:50:41.820Z,12.90
2024-05-09T15:53:13.059Z,12.57
2024-05-09T15:55:43.111Z,12.46
2024-05-09T15:58:12.912Z,12.50
2024-05-09T16:00:44.783Z,12.07
2024-05-09T16:03:14.997Z,12.03
2024-05-09T16:05:48.194Z,11.85
2024-05-09T16:08:17.231Z,11.65
2024-05-09T16:10:47.100Z,11.53
2024-05-09T16:13:16.481Z,11.42
2024-05-09T16:15:46.270Z,11.18
2024-05-09T16:18:15.029Z,11.05
2024-05-09T16:20:44.931Z,11.32
2024-05-09T16:23:14.467Z,11.52
2024-05-09T16:25:45.837Z,11.40
2024-05-09T16:28:14.896Z,11.35
2024-05-09T16:30:42.837Z,11.40
2024-05-09T16:33:12.414Z,11.35
2024-05-09T16:35:40.971Z,11.21
2024-05-09T16:38:10.075Z,11.14
2024-05-09T16:40:40.544Z,10.91
2024-05-09T16:43:11.912Z,11.02
2024-05-09T16:45:46.135Z,10.73
2024-05-09T16:48:14.823Z,10.45
2024-05-09T16:50:42.789Z,10.80
2024-05-09T16:53:10.464Z,10.98
2024-05-09T16:55:38.385Z,10.94
2024-05-09T16:58:07.983Z,10.73
2024-05-09T17:00:42.099Z,10.23
2024-05-09T17:03:14.814Z,9.99
2024-05-09T17:05:50.800Z,9.81
2024-05-09T17:08:21.109Z,10.14
2024-05-09T17:10:49.964Z,10.31
2024-05-09T17:13:19.354Z,10.26
2024-05-09T17:15:49.353Z,10.26
2024-05-09T17:18:17.366Z,10.30
2024-05-09T17:20:45.231Z,10.06
2024-05-09T17:23:14.378Z,9.99
2024-05-09T17:25:44.074Z,10.26
2024-05-09T17:28:12.467Z,10.97
2024-05-09T17:30:43.058Z,12.13
2024-05-09T17:33:12.855Z,13.39
2024-05-09T17:35:42.329Z,14.58
2024-05-09T17:38:11.307Z,15.38
2024-05-09T17:40:40.417Z,16.25
2024-05-09T17:43:10.596Z,17.33
2024-05-09T17:45:40.669Z,18.06
2024-05-09T17:48:11.048Z,18.67
2024-05-09T17:50:42.073Z,19.23
2024-05-09T17:53:11.312Z,19.90
2024-05-09T17:55:40.830Z,20.46
2024-05-09T17:58:09.439Z,20.95
2024-05-09T18:00:40.781Z,21.70
2024-05-09T18:03:12.622Z,22.05
2024-05-09T18:05:43.959Z,22.62
2024-05-09T18:08:13.366Z,22.94
2024-05-09T18:10:42.775Z,23.30
2024-05-09T18:13:12.380Z,23.97
2024-05-09T18:15:41.608Z,24.21
2024-05-09T18:18:11.960Z,24.64
2024-05-09T18:20:44.516Z,25.19
2024-05-09T18:23:16.512Z,25.31
2024-05-09T18:25:48.078Z,25.88
2024-05-09T18:28:17.071Z,26.18
2024-05-09T18:30:46.071Z,27.01
2024-05-09T18:33:14.942Z,26.91
2024-05-09T18:35:44.246Z,27.34
2024-05-09T18:38:12.211Z,28.16
2024-05-09T18:40:43.861Z,28.59
2024-05-09T18:43:15.081Z,29.36
2024-05-09T18:45:43.442Z,29.69
2024-05-09T18:48:13.394Z,30.20
2024-05-09T18:50:42.130Z,30.52
2024-05-09T18:53:12.246Z,30.94
2024-05-09T18:55:42.863Z,31.63
2024-05-09T18:58:11.142Z,31.99
2024-05-09T19:00:41.539Z,32.43
2024-05-09T19:03:13.984Z,32.75
2024-05-09T19:05:45.247Z,32.91
2024-05-09T19:08:15.168Z,33.32
2024-05-09T19:10:47.304Z,33.53
2024-05-09T19:13:16.398Z,33.96
2024-05-09T19:15:45.066Z,34.22
2024-05-09T19:18:14.031Z,34.55
2024-05-09T19:20:43.294Z,34.81
2024-05-09T19:23:12.833Z,35.14
2024-05-09T19:25:41.247Z,35.46
2024-05-09T19:28:09.979Z,35.70
2024-05-09T19:30:41.320Z,36.08
2024-05-09T19:33:13.331Z,36.25
2024-05-09T19:35:43.070Z,36.67
2024-05-09T19:38:12.924Z,36.97
2024-05-09T19:40:41.125Z,37.29
2024-05-09T19:43:10.856Z,37.44
2024-05-09T19:45:39.378Z,37.58
2024-05-09T19:48:08.118Z,37.59
2024-05-09T19:50:41.941Z,38.42
2024-05-09T19:53:14.162Z,39.19
2024-05-09T19:55:42.783Z,39.29
2024-05-09T19:58:13.245Z,39.19
2024-05-09T20:00:44.567Z,39.08
2024-05-09T20:03:14.473Z,39.16
2024-05-09T20:05:45.386Z,39.33
2024-05-09T20:08:14.961Z,39.15
2024-05-09T20:10:43.475Z,39.59
2024-05-09T20:13:12.013Z,39.65
2024-05-09T20:15:40.461Z,39.72
2024-05-09T20:18:08.936Z,39.92
2024-05-09T20:20:41.451Z,40.12
2024-05-09T20:23:13.526Z,40.24
2024-05-09T20:25:42.347Z,40.34
2024-05-09T20:28:11.257Z,41.15
2024-05-09T20:30:40.987Z,41.33
2024-05-09T20:33:10.122Z,41.38
2024-05-09T20:35:40.674Z,41.87
2024-05-09T20:38:09.341Z,42.05
2024-05-09T20:40:39.116Z,42.29
2024-05-09T20:43:09.689Z,42.50
2024-05-09T20:45:39.856Z,42.80
2024-05-09T20:48:08.974Z,42.85
2024-05-09T20:50:41.028Z,43.31
2024-05-09T20:53:13.106Z,43.37
2024-05-09T20:55:45.318Z,43.57
2024-05-09T20:58:14.355Z,43.66
2024-05-09T21:00:45.378Z,43.94
2024-05-09T21:03:16.944Z,44.04
2024-05-09T21:05:49.089Z,44.23
2024-05-09T21:08:18.774Z,44.44
2024-05-09T21:10:46.578Z,44.55
2024-05-09T21:13:14.837Z,44.69
2024-05-09T21:15:44.198Z,44.83
2024-05-09T21:18:12.730Z,45.02
2024-05-09T21:20:41.475Z,44.88
2024-05-09T21:23:09.254Z,44.88
2024-05-09T21:25:37.338Z,44.98
2024-05-09T21:28:05.446Z,45.05
2024-05-09T21:30:41.325Z,45.32
2024-05-09T21:33:13.470Z,45.73
2024-05-09T21:35:44.356Z,45.97
2024-05-09T21:38:15.024Z,46.09
2024-05-09T21:40:44.128Z,46.17
2024-05-09T21:43:12.525Z,46.53
2024-05-09T21:45:40.846Z,46.64
2024-05-09T21:48:09.435Z,46.86
2024-05-09T21:50:41.058Z,46.89
2024-05-09T21:53:11.571Z,46.84
2024-05-09T21:55:41.969Z,46.60
2024-05-09T21:58:14.392Z,46.66
2024-05-09T22:00:45.519Z,46.75
2024-05-09T22:03:14.990Z,46.79
2024-05-09T22:05:44.860Z,47.29
2024-05-09T22:08:13.505Z,47.08
2024-05-09T22:10:42.022Z,47.13
2024-05-09T22:13:10.039Z,47.30
2024-05-09T22:15:40.046Z,47.60
2024-05-09T22:18:11.762Z,47.77
2024-05-09T22:20:45.821Z,47.52
2024-05-09T22:23:15.566Z,47.72
2024-05-09T22:25:44.343Z,48.02
2024-05-09T22:28:15.730Z,48.33
2024-05-09T22:30:45.538Z,48.50
2024-05-09T22:33:14.872Z,48.44
2024-05-09T22:35:43.173Z,48.49
2024-05-09T22:38:11.860Z,48.42
2024-05-09T22:40:47.336Z,48.36
2024-05-09T22:43:23.356Z,48.53
2024-05-09T22:45:55.167Z,48.41
2024-05-09T22:48:24.750Z,48.46
2024-05-09T22:50:53.611Z,48.56
2024-05-09T22:53:24.428Z,48.55
2024-05-09T22:55:53.347Z,48.62
2024-05-09T22:58:23.013Z,48.69
2024-05-09T23:00:51.357Z,48.64
2024-05-09T23:03:22.010Z,48.53
2024-05-09T23:05:53.479Z,48.53
2024-05-09T23:08:22.637Z,48.37
2024-05-09T23:10:50.996Z,48.33
2024-05-09T23:13:19.710Z,48.27
2024-05-09T23:15:48.644Z,48.33
2024-05-09T23:18:16.398Z,48.36
2024-05-09T23:20:44.359Z,48.51
2024-05-09T23:23:12.383Z,48.62
2024-05-09T23:25:42.123Z,48.95
2024-05-09T23:28:13.135Z,49.04
2024-05-09T23:30:42.126Z,49.08
2024-05-09T23:33:12.674Z,49.09
2024-05-09T23:35:43.450Z,49.10
2024-05-09T23:38:13.160Z,49.42
2024-05-09T23:40:42.412Z,49.62
2024-05-09T23:43:12.689Z,49.76
2024-05-09T23:45:42.339Z,49.94
2024-05-09T23:48:12.074Z,49.99
2024-05-09T23:50:40.821Z,50.09
2024-05-09T23:53:10.893Z,49.92
2024-05-09T23:55:39.991Z,50.00
2024-05-09T23:58:09.633Z,50.02
